Overview Statistics Trail Chart Weather Telemetry Raw packets
 

This is the latest recevied weather packets stored in our database for station/object VK6WB. If no packets are shown the sender has not sent any weather packets the latest 10 day(s).

<< 35 36 37 38 39 40 41 >>
Time Temp. Humidity Pressure Rain* Wind** Luminosity Snow
1777037405 14.44° C 47% 1016.3 hPa 0 mm - 373 W/m² -
1777036805 13.89° C 48% 1016.2 hPa 0 mm - 373 W/m² -
1777036205 13.89° C 47% 1016.1 hPa 0 mm - 373 W/m² -
1777035605 15° C 47% 1015.9 hPa 0 mm - 373 W/m² -
1777035005 15° C 47% 1015.8 hPa 0 mm - 373 W/m² -
1777034404 15.56° C 46% 1015.7 hPa 0 mm - 373 W/m² -
1777033805 15.56° C 46% 1015.7 hPa 0 mm - 373 W/m² -
1777033205 16.11° C 46% 1015.7 hPa 0 mm - 373 W/m² -
1777032605 16.11° C 48% 1015.6 hPa 0 mm - 373 W/m² -
1777032005 15.56° C 49% 1015.6 hPa 0 mm - 373 W/m² -
1777031405 15.56° C 51% 1015.4 hPa 0 mm - 373 W/m² -
1777030805 15.56° C 52% 1015.4 hPa 0 mm - 373 W/m² -
1777030205 15.56° C 54% 1015.4 hPa 0 mm - 373 W/m² -
1777029604 15.56° C 54% 1015.2 hPa 0 mm - 373 W/m² -
1777029005 15.56° C 54% 1015.1 hPa 0 mm - 373 W/m² -
1777028405 16.11° C 53% 1014.9 hPa 0 mm - 373 W/m² -
1777027805 16.11° C 54% 1014.7 hPa 0 mm - 373 W/m² -
1777027205 16.67° C 54% 1014.6 hPa 0 mm - 373 W/m² -
1777026604 16.67° C 54% 1014.3 hPa 0 mm - 373 W/m² -
1777026005 16.67° C 54% 1014.4 hPa 0 mm - 373 W/m² -
1777025405 17.22° C 53% 1014 hPa 0 mm - 373 W/m² -
1777024805 17.78° C 52% 1013.7 hPa 0 mm - 373 W/m² -
1777024205 18.33° C 51% 1013.4 hPa 0 mm - 373 W/m² -
1777023605 18.89° C 47% 1013.5 hPa 0 mm - 373 W/m² -
1777023005 19.44° C 45% 1013.6 hPa 0 mm - 373 W/m² -

* Rain latest hour (hover to see other rain measurements)
** Current wind speed in m/s (hover to see current wind gust speed)